Time;durP1;ratioP1;P1;durP2;ratioP2;P2;SDS_P1;SDS_P2;PMS_P1;PMS_P2;Temp;Humidity;BMP_temperature;BMP_pressure;BME280_temperature;BME280_humidity;BME280_pressure;Samples;Min_cycle;Max_cycle;Signal;HPM_P1;HPM_P2
2023/07/21 00:02:02;;;;;;;4.88;3.30;;;;;;;;;;5074454;28;20555;-85
2023/07/21 00:04:29;;;;;;;3.45;3.08;;;;;;;;;;5074734;28;20197;-85
2023/07/21 00:06:56;;;;;;;3.30;3.00;;;;;;;;;;5074661;28;20212;-85
2023/07/21 00:09:24;;;;;;;4.43;2.72;;;;;;;;;;5074478;28;20601;-85
2023/07/21 00:11:51;;;;;;;2.75;2.55;;;;;;;;;;5074839;28;20236;-85
2023/07/21 00:14:18;;;;;;;3.08;2.75;;;;;;;;;;5059391;28;20316;-85
2023/07/21 00:16:46;;;;;;;3.50;2.55;;;;;;;;;;5064927;28;20197;-85
2023/07/21 00:19:13;;;;;;;2.85;2.60;;;;;;;;;;5073866;28;20240;-85
2023/07/21 00:21:40;;;;;;;3.08;2.63;;;;;;;;;;5074525;28;20205;-85
2023/07/21 00:24:07;;;;;;;2.70;2.50;;;;;;;;;;5074134;28;20237;-85
2023/07/21 00:26:35;;;;;;;3.28;2.28;;;;;;;;;;5066779;28;20205;-85
2023/07/21 00:29:03;;;;;;;2.95;2.60;;;;;;;;;;5073992;28;20244;-85
2023/07/21 00:31:31;;;;;;;2.83;2.55;;;;;;;;;;5057764;28;20226;-85
2023/07/21 00:33:59;;;;;;;3.10;2.67;;;;;;;;;;5053841;28;20221;-85
2023/07/21 00:36:26;;;;;;;2.85;2.63;;;;;;;;;;5054301;28;20214;-85
2023/07/21 00:38:53;;;;;;;4.47;3.13;;;;;;;;;;5053426;28;20243;-85
2023/07/21 00:41:20;;;;;;;3.17;2.97;;;;;;;;;;5052845;28;20226;-83
2023/07/21 00:43:48;;;;;;;3.38;3.08;;;;;;;;;;5053486;28;20245;-85
2023/07/21 00:46:15;;;;;;;2.83;2.60;;;;;;;;;;5054159;28;20237;-85
2023/07/21 00:48:42;;;;;;;6.50;2.90;;;;;;;;;;5053859;28;20241;-86
2023/07/21 00:51:10;;;;;;;3.28;2.97;;;;;;;;;;5053891;28;20234;-85
2023/07/21 00:53:37;;;;;;;3.45;3.15;;;;;;;;;;5057633;28;20259;-85
2023/07/21 00:56:06;;;;;;;3.50;2.97;;;;;;;;;;5054847;28;20206;-85
2023/07/21 00:58:33;;;;;;;2.60;2.38;;;;;;;;;;5054229;28;20265;-85
2023/07/21 01:01:01;;;;;;;4.00;3.10;;;;;;;;;;5055594;28;20245;-85
2023/07/21 01:03:29;;;;;;;3.03;2.83;;;;;;;;;;5053970;28;20233;-85
2023/07/21 01:05:57;;;;;;;2.92;2.72;;;;;;;;;;5070710;28;20205;-85
2023/07/21 01:08:24;;;;;;;5.80;3.50;;;;;;;;;;5076123;28;20311;-85
2023/07/21 01:10:52;;;;;;;3.20;3.00;;;;;;;;;;5077056;28;20232;-85
2023/07/21 01:13:20;;;;;;;3.13;2.78;;;;;;;;;;5077283;28;20229;-85
2023/07/21 01:15:50;;;;;;;2.92;2.72;;;;;;;;;;5078219;28;20205;-85
2023/07/21 01:18:20;;;;;;;2.72;2.53;;;;;;;;;;5077438;28;20320;-85
2023/07/21 01:20:48;;;;;;;3.08;2.80;;;;;;;;;;5077461;28;20228;-85
2023/07/21 01:23:21;;;;;;;4.28;3.05;;;;;;;;;;5077328;28;20233;-85
2023/07/21 01:25:52;;;;;;;2.95;2.60;;;;;;;;;;5077917;28;20576;-85
2023/07/21 01:28:20;;;;;;;5.25;2.97;;;;;;;;;;5077509;28;20241;-85
2023/07/21 01:30:48;;;;;;;8.68;3.25;;;;;;;;;;5077463;28;20233;-85
2023/07/21 01:33:18;;;;;;;2.78;2.58;;;;;;;;;;5077241;28;20268;-85
2023/07/21 01:35:48;;;;;;;2.88;2.67;;;;;;;;;;5077454;28;20683;-85
2023/07/21 01:38:16;;;;;;;3.33;3.13;;;;;;;;;;5057944;28;20733;-85
2023/07/21 01:40:44;;;;;;;3.85;3.00;;;;;;;;;;5062280;28;20593;-85
2023/07/21 01:43:14;;;;;;;3.13;2.83;;;;;;;;;;5057144;28;20257;-85
2023/07/21 01:45:42;;;;;;;3.80;3.03;;;;;;;;;;5059737;28;20213;-85
2023/07/21 01:48:10;;;;;;;3.17;2.78;;;;;;;;;;5076849;28;20241;-85
2023/07/21 01:50:41;;;;;;;5.55;2.80;;;;;;;;;;5071774;28;20226;-85
2023/07/21 01:53:09;;;;;;;3.17;2.78;;;;;;;;;;5057408;28;20236;-86
2023/07/21 01:55:38;;;;;;;3.80;2.80;;;;;;;;;;5072723;28;20202;-86
2023/07/21 01:58:08;;;;;;;3.55;3.03;;;;;;;;;;5075907;28;20237;-86
2023/07/21 02:00:37;;;;;;;3.67;3.05;;;;;;;;;;5056685;28;20252;-85
2023/07/21 02:03:05;;;;;;;4.43;3.08;;;;;;;;;;5056583;28;20253;-85
2023/07/21 02:05:32;;;;;;;2.97;2.70;;;;;;;;;;5057100;28;20656;-85
2023/07/21 02:07:59;;;;;;;4.90;3.08;;;;;;;;;;5068047;28;20252;-85
2023/07/21 02:10:26;;;;;;;4.47;2.92;;;;;;;;;;5076960;28;20233;-86
2023/07/21 02:12:53;;;;;;;6.00;3.08;;;;;;;;;;5076401;28;20232;-85
2023/07/21 02:15:20;;;;;;;5.25;3.15;;;;;;;;;;5077147;28;20193;-85
2023/07/21 02:17:49;;;;;;;3.22;2.92;;;;;;;;;;5076360;28;20224;-85
2023/07/21 02:20:16;;;;;;;4.45;3.10;;;;;;;;;;5058255;28;20234;-85
2023/07/21 02:22:43;;;;;;;3.38;3.08;;;;;;;;;;5055465;28;20230;-84
2023/07/21 02:25:10;;;;;;;3.42;3.13;;;;;;;;;;5072700;28;20710;-85
2023/07/21 02:27:38;;;;;;;3.50;3.20;;;;;;;;;;5075162;28;20229;-85
2023/07/21 02:30:06;;;;;;;3.20;2.90;;;;;;;;;;5077020;28;20686;-85
2023/07/21 02:32:33;;;;;;;2.78;2.58;;;;;;;;;;5075710;28;20294;-85
2023/07/21 02:35:01;;;;;;;3.25;3.00;;;;;;;;;;5076594;28;20205;-85
2023/07/21 02:37:28;;;;;;;5.20;3.33;;;;;;;;;;5070735;28;20603;-85
2023/07/21 02:39:55;;;;;;;4.93;3.13;;;;;;;;;;5056201;28;20233;-85
2023/07/21 02:42:23;;;;;;;3.38;2.95;;;;;;;;;;5055756;28;20606;-84
2023/07/21 02:44:50;;;;;;;2.85;2.65;;;;;;;;;;5058433;28;20589;-84
2023/07/21 02:47:17;;;;;;;3.53;2.80;;;;;;;;;;5055894;28;20229;-84
2023/07/21 02:49:44;;;;;;;3.78;2.97;;;;;;;;;;5056162;28;20222;-85
2023/07/21 02:52:13;;;;;;;5.05;2.63;;;;;;;;;;5055814;28;20226;-84
2023/07/21 02:54:40;;;;;;;3.78;3.10;;;;;;;;;;5056488;28;20210;-85
2023/07/21 02:57:08;;;;;;;2.90;2.58;;;;;;;;;;5055616;28;20675;-85
2023/07/21 02:59:36;;;;;;;3.33;2.90;;;;;;;;;;5055658;28;20703;-85
2023/07/21 03:02:03;;;;;;;3.33;3.03;;;;;;;;;;5055413;28;20194;-85
2023/07/21 03:04:34;;;;;;;3.28;2.97;;;;;;;;;;5056182;28;20213;-85
2023/07/21 03:07:01;;;;;;;3.38;3.08;;;;;;;;;;5055161;28;20562;-85
2023/07/21 03:09:30;;;;;;;3.08;2.78;;;;;;;;;;5056493;28;20209;-85
2023/07/21 03:11:59;;;;;;;3.75;3.45;;;;;;;;;;5055151;28;20237;-85
2023/07/21 03:14:26;;;;;;;3.33;3.03;;;;;;;;;;5066725;28;20221;-85
2023/07/21 03:16:53;;;;;;;4.63;3.50;;;;;;;;;;5075594;28;20206;-85
2023/07/21 03:19:21;;;;;;;3.65;3.35;;;;;;;;;;5075282;28;20213;-85
2023/07/21 03:21:49;;;;;;;3.15;2.85;;;;;;;;;;5075636;28;20192;-85
2023/07/21 03:24:17;;;;;;;5.25;3.67;;;;;;;;;;5075026;28;20283;-84
2023/07/21 03:26:45;;;;;;;3.40;3.10;;;;;;;;;;5066335;28;20659;-83
2023/07/21 03:29:12;;;;;;;4.97;3.42;;;;;;;;;;5052728;28;20234;-85
2023/07/21 03:31:39;;;;;;;4.82;3.60;;;;;;;;;;5054567;28;20214;-85
2023/07/21 03:34:07;;;;;;;4.85;3.75;;;;;;;;;;5054642;28;20237;-85
2023/07/21 03:36:34;;;;;;;5.18;3.67;;;;;;;;;;5069913;28;20197;-85
2023/07/21 03:39:01;;;;;;;3.58;3.28;;;;;;;;;;5075047;28;20233;-85
2023/07/21 03:41:28;;;;;;;3.95;3.47;;;;;;;;;;5075142;28;20221;-85
2023/07/21 03:43:58;;;;;;;6.30;3.40;;;;;;;;;;5073377;28;20241;-85
2023/07/21 03:46:25;;;;;;;8.13;3.58;;;;;;;;;;5055239;28;20630;-85
2023/07/21 03:48:52;;;;;;;3.60;3.13;;;;;;;;;;5054692;28;20594;-85
2023/07/21 03:51:19;;;;;;;3.75;3.38;;;;;;;;;;5055017;28;20276;-85
2023/07/21 03:53:46;;;;;;;3.90;3.60;;;;;;;;;;5054451;28;20241;-85
2023/07/21 03:56:13;;;;;;;3.92;3.53;;;;;;;;;;5054873;28;20584;-85
2023/07/21 03:58:40;;;;;;;6.03;3.20;;;;;;;;;;5058584;28;20735;-85
2023/07/21 04:04:39;;;;;;;3.70;3.40;;;;;;;;;;5005523;28;20730;-89
2023/07/21 04:10:21;;;;;;;4.07;3.10;;;;;;;;;;4942747;28;20271;-89
2023/07/21 04:12:48;;;;;;;3.33;3.03;;;;;;;;;;4974694;28;20239;-89
2023/07/21 04:15:15;;;;;;;3.70;3.40;;;;;;;;;;5026390;28;20202;-90
2023/07/21 04:17:43;;;;;;;4.25;3.58;;;;;;;;;;5055409;28;20232;-91
2023/07/21 04:20:12;;;;;;;3.50;3.20;;;;;;;;;;5057226;28;20317;-90
2023/07/21 04:22:39;;;;;;;6.95;3.47;;;;;;;;;;5057274;28;20234;-89
2023/07/21 04:25:06;;;;;;;4.78;3.50;;;;;;;;;;5070993;28;20212;-90
2023/07/21 04:27:35;;;;;;;6.28;3.88;;;;;;;;;;5076123;28;20232;-89
2023/07/21 04:30:02;;;;;;;3.83;3.47;;;;;;;;;;5062231;28;20221;-90
2023/07/21 04:32:29;;;;;;;4.22;3.80;;;;;;;;;;5055029;28;20241;-90
2023/07/21 04:34:56;;;;;;;3.70;3.40;;;;;;;;;;5055849;28;20309;-89
2023/07/21 04:37:24;;;;;;;4.03;3.67;;;;;;;;;;5055328;28;20248;-91
2023/07/21 04:39:51;;;;;;;4.05;3.47;;;;;;;;;;5055714;28;20703;-90
2023/07/21 04:42:18;;;;;;;4.87;3.73;;;;;;;;;;5057808;28;20228;-90
2023/07/21 04:44:48;;;;;;;4.78;3.72;;;;;;;;;;5060531;28;20686;-90
2023/07/21 04:47:15;;;;;;;3.60;3.30;;;;;;;;;;5055235;28;20630;-89
2023/07/21 04:49:42;;;;;;;3.78;3.33;;;;;;;;;;5060731;28;20222;-89
2023/07/21 04:52:09;;;;;;;4.13;3.83;;;;;;;;;;5059811;28;20225;-90
2023/07/21 04:54:37;;;;;;;3.90;3.50;;;;;;;;;;5060466;28;20605;-89
2023/07/21 04:57:05;;;;;;;4.00;3.30;;;;;;;;;;5059757;28;20554;-89
2023/07/21 04:59:32;;;;;;;4.00;3.65;;;;;;;;;;5059705;28;20209;-90
2023/07/21 05:02:00;;;;;;;3.92;3.60;;;;;;;;;;5059349;28;20652;-90
2023/07/21 05:04:27;;;;;;;5.10;4.25;;;;;;;;;;5059802;28;20693;-90
2023/07/21 05:06:54;;;;;;;6.93;3.90;;;;;;;;;;5060513;28;20234;-90
2023/07/21 05:09:22;;;;;;;3.70;3.40;;;;;;;;;;5059640;28;20222;-88
2023/07/21 05:11:49;;;;;;;4.50;3.75;;;;;;;;;;5058786;28;20226;-88
2023/07/21 05:14:17;;;;;;;4.53;4.13;;;;;;;;;;5057329;28;20252;-88
2023/07/21 05:16:45;;;;;;;6.35;3.50;;;;;;;;;;5067253;28;20201;-88
2023/07/21 05:19:13;;;;;;;4.23;3.70;;;;;;;;;;5062274;28;20230;-88
2023/07/21 05:21:40;;;;;;;3.80;3.17;;;;;;;;;;5058334;28;20190;-88
2023/07/21 05:24:07;;;;;;;6.70;3.87;;;;;;;;;;5058922;28;20241;-88
2023/07/21 05:26:36;;;;;;;3.83;3.53;;;;;;;;;;5078701;28;20201;-88
2023/07/21 05:29:03;;;;;;;4.18;3.65;;;;;;;;;;5077919;28;20237;-88
2023/07/21 05:31:30;;;;;;;4.17;3.57;;;;;;;;;;5078154;28;20308;-88
2023/07/21 05:33:58;;;;;;;6.05;3.58;;;;;;;;;;5077703;28;20236;-88
2023/07/21 05:36:26;;;;;;;4.70;3.40;;;;;;;;;;5068261;28;20198;-87
2023/07/21 05:38:53;;;;;;;3.85;3.53;;;;;;;;;;5057643;28;20719;-88
2023/07/21 05:41:22;;;;;;;4.72;3.28;;;;;;;;;;5058825;28;20229;-87
2023/07/21 05:43:49;;;;;;;4.32;3.92;;;;;;;;;;5058191;28;20253;-88
2023/07/21 05:46:16;;;;;;;3.63;3.33;;;;;;;;;;5058403;28;20198;-87
2023/07/21 05:48:43;;;;;;;4.10;3.70;;;;;;;;;;5066349;28;20718;-88
2023/07/21 05:51:13;;;;;;;4.18;3.80;;;;;;;;;;5069483;28;20232;-87
2023/07/21 05:53:41;;;;;;;4.38;3.72;;;;;;;;;;5057236;28;20241;-88
2023/07/21 05:56:08;;;;;;;4.40;4.00;;;;;;;;;;5058039;28;20206;-88
2023/07/21 05:58:36;;;;;;;7.70;4.15;;;;;;;;;;5057560;28;20696;-88
2023/07/21 06:01:03;;;;;;;10.13;4.63;;;;;;;;;;5063242;28;20228;-87
2023/07/21 06:03:30;;;;;;;4.80;4.30;;;;;;;;;;5077243;28;20233;-87
2023/07/21 06:05:58;;;;;;;5.97;4.60;;;;;;;;;;5079143;28;20186;-88
2023/07/21 06:08:25;;;;;;;4.80;4.38;;;;;;;;;;5078602;28;20217;-87
2023/07/21 06:10:56;;;;;;;4.15;3.75;;;;;;;;;;5076701;28;20209;-87
2023/07/21 06:13:24;;;;;;;4.55;4.10;;;;;;;;;;5076736;28;20240;-87
2023/07/21 06:15:51;;;;;;;4.55;4.15;;;;;;;;;;5077397;28;20204;-87
2023/07/21 06:18:18;;;;;;;7.00;4.10;;;;;;;;;;5077690;28;20320;-86
2023/07/21 06:20:45;;;;;;;5.78;3.92;;;;;;;;;;5079280;28;20236;-88
2023/07/21 06:23:12;;;;;;;10.65;4.07;;;;;;;;;;5076745;28;20319;-86
2023/07/21 06:25:41;;;;;;;4.90;4.35;;;;;;;;;;5076756;28;20205;-86
2023/07/21 06:28:10;;;;;;;4.75;4.25;;;;;;;;;;5059731;28;20296;-86
2023/07/21 06:30:37;;;;;;;4.25;3.60;;;;;;;;;;5072774;28;20239;-87
2023/07/21 06:33:05;;;;;;;6.32;3.10;;;;;;;;;;5079731;28;20237;-87
2023/07/21 06:35:33;;;;;;;4.82;3.25;;;;;;;;;;5076574;28;20288;-87
2023/07/21 06:38:00;;;;;;;4.35;3.22;;;;;;;;;;5075731;28;20239;-87
2023/07/21 06:40:28;;;;;;;5.50;2.80;;;;;;;;;;5077770;28;20320;-88
2023/07/21 06:42:55;;;;;;;3.00;2.72;;;;;;;;;;5077599;28;20703;-87
2023/07/21 06:45:24;;;;;;;3.47;3.10;;;;;;;;;;5077733;28;20620;-87
2023/07/21 06:47:52;;;;;;;3.10;2.83;;;;;;;;;;5076646;28;20229;-87
2023/07/21 06:50:19;;;;;;;5.80;2.72;;;;;;;;;;5076458;28;20228;-87
2023/07/21 06:52:46;;;;;;;4.78;2.90;;;;;;;;;;5075432;28;20245;-89
2023/07/21 06:55:13;;;;;;;2.97;2.50;;;;;;;;;;5076496;28;20201;-86
2023/07/21 06:57:40;;;;;;;2.75;2.55;;;;;;;;;;5075626;28;20320;-86
2023/07/21 07:00:08;;;;;;;3.92;2.90;;;;;;;;;;5076061;28;20247;-85
2023/07/21 07:02:36;;;;;;;7.95;2.88;;;;;;;;;;5076152;28;20229;-88
2023/07/21 07:05:04;;;;;;;3.17;2.83;;;;;;;;;;5076763;28;20189;-87
2023/07/21 07:07:31;;;;;;;7.88;2.97;;;;;;;;;;5076243;28;20229;-88
2023/07/21 07:09:58;;;;;;;3.05;2.75;;;;;;;;;;5076163;28;20240;-88
2023/07/21 07:12:25;;;;;;;3.00;2.80;;;;;;;;;;5076268;28;20261;-87
2023/07/21 07:14:52;;;;;;;3.13;2.83;;;;;;;;;;5075648;28;20220;-88
2023/07/21 07:17:20;;;;;;;3.58;2.72;;;;;;;;;;5071567;28;20698;-88
2023/07/21 07:19:54;;;;;;;2.60;2.40;;;;;;;;;;5069741;28;20777;-88
2023/07/21 07:22:21;;;;;;;4.60;2.92;;;;;;;;;;5074536;28;20228;-88
2023/07/21 07:24:49;;;;;;;3.30;3.00;;;;;;;;;;5075496;28;20212;-86
2023/07/21 07:27:16;;;;;;;6.20;3.28;;;;;;;;;;5074454;28;20256;-86
2023/07/21 07:29:43;;;;;;;4.03;3.40;;;;;;;;;;5074839;28;20233;-86
2023/07/21 07:32:10;;;;;;;4.68;3.80;;;;;;;;;;5074221;28;20221;-87
2023/07/21 07:34:37;;;;;;;3.50;3.20;;;;;;;;;;5074597;28;20213;-86
2023/07/21 07:37:06;;;;;;;3.55;3.22;;;;;;;;;;5073956;28;20201;-86
2023/07/21 07:39:34;;;;;;;2.92;2.72;;;;;;;;;;5073689;28;20259;-86
2023/07/21 07:42:01;;;;;;;3.92;2.97;;;;;;;;;;5073659;28;20214;-86
2023/07/21 07:44:28;;;;;;;3.85;3.00;;;;;;;;;;5074288;28;20213;-86
2023/07/21 07:46:56;;;;;;;4.03;3.10;;;;;;;;;;5073358;28;20222;-86
2023/07/21 07:49:24;;;;;;;3.28;3.05;;;;;;;;;;5073935;28;20217;-86
2023/07/21 07:51:51;;;;;;;3.45;2.90;;;;;;;;;;5074083;28;20271;-87
2023/07/21 07:54:19;;;;;;;3.33;3.03;;;;;;;;;;5073419;28;20324;-87
2023/07/21 07:56:50;;;;;;;3.30;3.00;;;;;;;;;;5068801;28;20237;-87
2023/07/21 07:59:18;;;;;;;5.13;3.05;;;;;;;;;;5066495;28;20449;-87
2023/07/21 08:01:45;;;;;;;2.90;2.60;;;;;;;;;;5072374;28;20304;-86
2023/07/21 08:04:12;;;;;;;4.82;3.08;;;;;;;;;;5058381;28;20238;-85
2023/07/21 08:06:40;;;;;;;3.22;2.90;;;;;;;;;;5061503;28;20213;-85
2023/07/21 08:09:09;;;;;;;5.88;3.20;;;;;;;;;;5066433;28;20237;-87
2023/07/21 08:11:38;;;;;;;4.82;2.90;;;;;;;;;;5080262;28;20283;-87
2023/07/21 08:14:05;;;;;;;3.42;3.13;;;;;;;;;;5059311;28;20261;-86
2023/07/21 08:16:33;;;;;;;3.90;3.35;;;;;;;;;;5062723;28;20245;-88
2023/07/21 08:19:01;;;;;;;4.55;2.97;;;;;;;;;;5072742;28;20651;-85
2023/07/21 08:21:28;;;;;;;4.15;2.70;;;;;;;;;;5064176;28;20225;-86
2023/07/21 08:23:55;;;;;;;4.25;2.47;;;;;;;;;;5070578;28;20252;-87
2023/07/21 08:26:22;;;;;;;3.13;2.83;;;;;;;;;;5057367;28;20206;-88
2023/07/21 08:28:52;;;;;;;3.78;2.80;;;;;;;;;;5064566;28;20229;-88
2023/07/21 08:31:19;;;;;;;3.88;2.50;;;;;;;;;;5073827;28;20221;-88
2023/07/21 08:33:47;;;;;;;2.92;2.53;;;;;;;;;;5064480;28;20241;-87
2023/07/21 08:36:14;;;;;;;2.80;2.30;;;;;;;;;;5067159;28;20217;-87
2023/07/21 08:38:41;;;;;;;2.50;2.30;;;;;;;;;;5062363;28;20237;-88
2023/07/21 08:41:08;;;;;;;3.38;2.35;;;;;;;;;;5073111;28;20729;-86
2023/07/21 08:43:36;;;;;;;2.92;2.20;;;;;;;;;;5071918;28;20611;-85
2023/07/21 08:46:08;;;;;;;3.13;2.40;;;;;;;;;;5061128;28;20209;-87
2023/07/21 08:48:35;;;;;;;3.47;2.95;;;;;;;;;;5065390;28;20236;-86
2023/07/21 08:51:03;;;;;;;3.47;2.60;;;;;;;;;;5072638;28;21027;-85
2023/07/21 08:53:30;;;;;;;5.80;3.03;;;;;;;;;;5056305;28;20233;-84
2023/07/21 08:55:59;;;;;;;3.75;2.22;;;;;;;;;;5060945;28;20206;-85
2023/07/21 08:58:26;;;;;;;2.42;2.22;;;;;;;;;;5068534;28;20243;-85
2023/07/21 09:00:54;;;;;;;2.42;2.20;;;;;;;;;;5064236;28;20240;-85
2023/07/21 09:03:23;;;;;;;2.55;2.35;;;;;;;;;;5056260;28;20245;-86
2023/07/21 09:05:51;;;;;;;3.03;2.35;;;;;;;;;;5070580;28;20213;-87
2023/07/21 09:08:22;;;;;;;2.63;2.42;;;;;;;;;;5061025;28;20257;-86
2023/07/21 09:10:49;;;;;;;2.88;2.60;;;;;;;;;;5072216;28;20240;-87
2023/07/21 09:13:17;;;;;;;3.30;3.00;;;;;;;;;;5064934;28;20217;-87
2023/07/21 09:15:51;;;;;;;3.88;2.20;;;;;;;;;;5063707;28;20290;-86
2023/07/21 09:18:18;;;;;;;3.08;2.63;;;;;;;;;;5059267;28;20229;-87
2023/07/21 09:20:49;;;;;;;3.60;2.45;;;;;;;;;;5073267;28;20225;-86
2023/07/21 09:23:19;;;;;;;3.28;2.47;;;;;;;;;;5064144;28;20225;-85
2023/07/21 09:25:49;;;;;;;3.92;2.80;;;;;;;;;;5072403;28;20565;-86
2023/07/21 09:28:16;;;;;;;5.68;2.67;;;;;;;;;;5065071;28;20241;-85
2023/07/21 09:30:50;;;;;;;3.28;2.30;;;;;;;;;;5073946;28;20238;-87
2023/07/21 09:33:25;;;;;;;4.55;2.85;;;;;;;;;;5063957;28;20280;-85
2023/07/21 09:36:04;;;;;;;2.50;2.30;;;;;;;;;;5074318;28;20236;-86
2023/07/21 09:38:31;;;;;;;3.15;2.45;;;;;;;;;;5059385;28;20270;-85
2023/07/21 09:41:01;;;;;;;2.83;2.28;;;;;;;;;;5070601;28;20229;-86
2023/07/21 09:43:29;;;;;;;2.20;2.00;;;;;;;;;;5063690;28;20232;-87
2023/07/21 09:45:57;;;;;;;3.65;2.60;;;;;;;;;;5067026;28;20252;-87
2023/07/21 09:48:24;;;;;;;3.55;1.70;;;;;;;;;;5063776;28;20276;-86
2023/07/21 09:50:51;;;;;;;4.63;2.10;;;;;;;;;;5065853;28;20236;-85
2023/07/21 09:53:21;;;;;;;2.50;2.30;;;;;;;;;;5067885;28;20237;-86
2023/07/21 09:55:49;;;;;;;2.35;2.15;;;;;;;;;;5076041;28;20206;-86
2023/07/21 09:58:18;;;;;;;2.30;2.10;;;;;;;;;;5070306;28;20233;-87
2023/07/21 10:00:45;;;;;;;2.00;1.90;;;;;;;;;;5072425;28;20765;-85
2023/07/21 10:03:13;;;;;;;1.95;1.85;;;;;;;;;;5061260;28;20600;-86
2023/07/21 10:05:40;;;;;;;2.60;2.40;;;;;;;;;;5067983;28;20210;-86
2023/07/21 10:08:09;;;;;;;3.50;1.92;;;;;;;;;;5074880;28;20233;-87
2023/07/21 10:10:38;;;;;;;2.00;1.90;;;;;;;;;;5061220;28;20273;-86
2023/07/21 10:13:07;;;;;;;2.08;1.92;;;;;;;;;;5079690;28;20229;-88
2023/07/21 10:15:35;;;;;;;2.92;2.00;;;;;;;;;;5079740;28;20213;-86
2023/07/21 10:18:04;;;;;;;2.83;2.00;;;;;;;;;;5082918;28;20242;-86
2023/07/21 10:20:41;;;;;;;3.65;2.25;;;;;;;;;;5080934;28;20244;-85
2023/07/21 10:23:09;;;;;;;2.47;2.25;;;;;;;;;;5082165;28;20784;-86
2023/07/21 10:25:47;;;;;;;2.40;2.20;;;;;;;;;;5081238;28;20201;-84
2023/07/21 10:28:15;;;;;;;2.33;2.10;;;;;;;;;;5078022;28;20316;-86
2023/07/21 10:30:42;;;;;;;4.20;2.03;;;;;;;;;;5079661;28;20221;-86
2023/07/21 10:33:13;;;;;;;3.78;2.65;;;;;;;;;;5084588;28;20294;-86
2023/07/21 10:35:40;;;;;;;2.40;2.20;;;;;;;;;;5085211;28;20305;-86
2023/07/21 10:38:23;;;;;;;3.97;2.40;;;;;;;;;;5083864;28;20307;-86
2023/07/21 10:40:52;;;;;;;2.25;2.05;;;;;;;;;;5076276;28;20253;-86
2023/07/21 10:43:19;;;;;;;2.30;2.10;;;;;;;;;;5083870;28;20368;-87
2023/07/21 10:45:53;;;;;;;4.15;1.80;;;;;;;;;;5085640;28;20667;-85
2023/07/21 10:48:22;;;;;;;2.30;2.10;;;;;;;;;;5082091;28;20225;-86
2023/07/21 10:50:58;;;;;;;3.92;2.35;;;;;;;;;;5094078;28;20745;-86
2023/07/21 10:53:26;;;;;;;2.20;2.00;;;;;;;;;;5081530;28;20263;-83
2023/07/21 10:55:55;;;;;;;4.82;1.92;;;;;;;;;;5081113;28;20209;-84
2023/07/21 10:58:23;;;;;;;1.70;1.60;;;;;;;;;;5076600;28;20723;-83
2023/07/21 11:00:51;;;;;;;2.45;1.90;;;;;;;;;;5082760;28;20730;-83
2023/07/21 11:03:19;;;;;;;2.33;1.90;;;;;;;;;;5081779;28;20297;-82
2023/07/21 11:05:46;;;;;;;2.13;1.92;;;;;;;;;;5081172;28;20240;-80
2023/07/21 11:08:13;;;;;;;3.22;2.00;;;;;;;;;;5067075;28;20288;-81
2023/07/21 11:10:41;;;;;;;2.25;2.05;;;;;;;;;;5060968;28;20605;-83
2023/07/21 11:13:09;;;;;;;2.10;1.80;;;;;;;;;;5060257;28;20225;-83
2023/07/21 11:15:36;;;;;;;3.28;1.77;;;;;;;;;;5076619;28;20699;-83
2023/07/21 11:18:04;;;;;;;1.75;1.65;;;;;;;;;;5078719;28;20296;-82
2023/07/21 11:20:31;;;;;;;5.55;2.22;;;;;;;;;;5081659;28;20279;-82
2023/07/21 11:22:59;;;;;;;3.58;2.20;;;;;;;;;;5066366;28;20497;-81
2023/07/21 11:25:26;;;;;;;2.80;1.80;;;;;;;;;;5053009;28;20297;-84
2023/07/21 11:27:54;;;;;;;3.70;1.90;;;;;;;;;;5066392;28;20225;-82
2023/07/21 11:30:23;;;;;;;4.22;2.20;;;;;;;;;;5075328;28;20232;-83
2023/07/21 11:33:08;;;;;;;3.70;2.20;;;;;;;;;;5071806;28;20312;-83
2023/07/21 11:35:35;;;;;;;2.53;1.90;;;;;;;;;;5060349;28;20290;-82
2023/07/21 11:38:03;;;;;;;1.85;1.75;;;;;;;;;;5063792;28;20316;-83
2023/07/21 11:40:34;;;;;;;2.63;1.75;;;;;;;;;;5073740;28;20236;-82
2023/07/21 11:43:07;;;;;;;2.63;2.33;;;;;;;;;;5069880;28;20234;-83
2023/07/21 11:45:36;;;;;;;2.47;1.90;;;;;;;;;;5059886;28;20678;-83
2023/07/21 11:48:04;;;;;;;2.10;1.50;;;;;;;;;;5064270;28;20237;-83
2023/07/21 11:50:31;;;;;;;2.70;1.70;;;;;;;;;;5072281;28;20272;-83
2023/07/21 11:53:01;;;;;;;3.13;1.92;;;;;;;;;;5071964;28;20235;-83
2023/07/21 11:55:29;;;;;;;3.22;1.92;;;;;;;;;;5073101;28;20324;-83
2023/07/21 11:57:56;;;;;;;6.72;1.98;;;;;;;;;;5061082;28;20237;-83
2023/07/21 12:00:24;;;;;;;2.67;2.20;;;;;;;;;;5060170;28;20321;-83
2023/07/21 12:02:53;;;;;;;2.55;1.92;;;;;;;;;;5069728;28;20237;-83
2023/07/21 12:05:21;;;;;;;6.22;2.05;;;;;;;;;;5064126;28;20213;-83
2023/07/21 12:07:48;;;;;;;4.53;1.92;;;;;;;;;;5070720;28;20657;-82
2023/07/21 12:10:15;;;;;;;2.03;1.92;;;;;;;;;;5060035;28;20572;-82
2023/07/21 12:12:42;;;;;;;3.05;1.80;;;;;;;;;;5068452;28;20244;-83
2023/07/21 12:15:11;;;;;;;1.58;1.48;;;;;;;;;;5059910;28;20229;-83
2023/07/21 12:17:38;;;;;;;3.15;1.60;;;;;;;;;;5067209;28;20602;-83
2023/07/21 12:20:11;;;;;;;2.22;1.63;;;;;;;;;;5060220;28;20230;-83
2023/07/21 12:22:39;;;;;;;1.63;1.52;;;;;;;;;;5066826;28;20702;-83
2023/07/21 12:25:06;;;;;;;3.22;2.10;;;;;;;;;;5068318;28;20232;-83
2023/07/21 12:27:33;;;;;;;4.07;2.30;;;;;;;;;;5066384;28;20287;-82
2023/07/21 12:30:00;;;;;;;2.35;1.77;;;;;;;;;;5063206;28;20225;-82
2023/07/21 12:32:27;;;;;;;2.70;1.90;;;;;;;;;;5066846;28;20236;-82
2023/07/21 12:34:55;;;;;;;4.15;1.95;;;;;;;;;;5071442;28;20217;-82
2023/07/21 12:37:23;;;;;;;2.08;1.75;;;;;;;;;;5071038;28;20225;-82
2023/07/21 12:39:51;;;;;;;5.85;1.70;;;;;;;;;;5062875;28;20236;-83
2023/07/21 12:42:18;;;;;;;4.55;2.08;;;;;;;;;;5070443;28;20236;-82
2023/07/21 12:44:45;;;;;;;2.22;1.65;;;;;;;;;;5070943;28;20650;-83
2023/07/21 12:47:12;;;;;;;2.33;1.88;;;;;;;;;;5059459;28;20216;-83
2023/07/21 12:49:39;;;;;;;2.85;1.85;;;;;;;;;;5059697;28;20234;-82
2023/07/21 12:52:07;;;;;;;3.25;2.00;;;;;;;;;;5063905;28;20296;-82
2023/07/21 12:54:35;;;;;;;2.88;1.85;;;;;;;;;;5064463;28;20711;-82
2023/07/21 12:57:02;;;;;;;2.22;1.77;;;;;;;;;;5061561;28;20289;-83
2023/07/21 12:59:29;;;;;;;2.15;1.80;;;;;;;;;;5065263;28;20680;-83
2023/07/21 13:01:56;;;;;;;2.28;1.70;;;;;;;;;;5061052;28;20209;-83
2023/07/21 13:04:23;;;;;;;3.17;2.03;;;;;;;;;;5075834;28;20201;-82
2023/07/21 13:06:51;;;;;;;3.50;1.92;;;;;;;;;;5059021;28;20558;-83
2023/07/21 13:09:18;;;;;;;2.03;1.80;;;;;;;;;;5070237;28;20237;-83
2023/07/21 13:11:46;;;;;;;2.75;2.00;;;;;;;;;;5072659;28;20212;-83
2023/07/21 13:14:13;;;;;;;2.17;1.80;;;;;;;;;;5062644;28;20323;-83
2023/07/21 13:16:40;;;;;;;1.90;1.73;;;;;;;;;;5055505;28;20206;-83
2023/07/21 13:19:08;;;;;;;2.15;2.05;;;;;;;;;;5074314;28;20229;-83
2023/07/21 13:21:35;;;;;;;3.05;2.03;;;;;;;;;;5060570;28;20230;-82
2023/07/21 13:24:03;;;;;;;3.08;2.13;;;;;;;;;;5073687;28;20237;-84
2023/07/21 13:26:30;;;;;;;2.65;1.85;;;;;;;;;;5075278;28;20213;-84
2023/07/21 13:28:58;;;;;;;3.08;2.28;;;;;;;;;;5065879;28;20604;-84
2023/07/21 13:31:25;;;;;;;4.60;2.28;;;;;;;;;;5064705;28;20226;-84
2023/07/21 13:33:53;;;;;;;3.05;1.90;;;;;;;;;;5071778;28;20241;-84
2023/07/21 13:36:20;;;;;;;2.78;2.10;;;;;;;;;;5068427;28;20248;-85
2023/07/21 13:38:47;;;;;;;2.30;2.10;;;;;;;;;;5066139;28;20233;-85
2023/07/21 13:41:14;;;;;;;5.22;2.50;;;;;;;;;;5058574;28;20233;-85
2023/07/21 13:43:41;;;;;;;3.55;2.38;;;;;;;;;;5072340;28;20308;-85
2023/07/21 13:46:10;;;;;;;3.90;2.20;;;;;;;;;;5067498;28;20671;-84
2023/07/21 13:48:37;;;;;;;6.80;2.10;;;;;;;;;;5067295;28;20237;-84
2023/07/21 13:51:04;;;;;;;2.45;2.20;;;;;;;;;;5074798;28;20343;-84
2023/07/21 13:53:33;;;;;;;2.33;2.08;;;;;;;;;;5071039;28;20240;-84
2023/07/21 13:56:00;;;;;;;3.47;2.20;;;;;;;;;;5066801;28;20236;-85
2023/07/21 13:58:27;;;;;;;2.88;2.10;;;;;;;;;;5074553;28;20237;-85
2023/07/21 14:00:55;;;;;;;10.35;2.38;;;;;;;;;;5075263;28;20718;-85
2023/07/21 14:03:25;;;;;;;2.70;2.50;;;;;;;;;;5074130;28;20240;-84
2023/07/21 14:05:53;;;;;;;3.30;2.17;;;;;;;;;;5074880;28;20213;-84
2023/07/21 14:08:20;;;;;;;3.10;1.92;;;;;;;;;;5059127;28;20271;-84
2023/07/21 14:10:47;;;;;;;2.40;2.20;;;;;;;;;;5066742;28;20226;-84
2023/07/21 14:13:14;;;;;;;1.80;1.70;;;;;;;;;;5056579;28;20546;-83
2023/07/21 14:15:41;;;;;;;2.13;1.60;;;;;;;;;;5066070;28;20331;-84
2023/07/21 14:18:08;;;;;;;2.25;1.90;;;;;;;;;;5062381;28;20802;-84
2023/07/21 14:20:37;;;;;;;5.10;1.80;;;;;;;;;;5060464;28;20224;-83
2023/07/21 14:23:04;;;;;;;3.00;2.25;;;;;;;;;;5065851;28;20233;-84
2023/07/21 14:25:31;;;;;;;2.47;1.70;;;;;;;;;;5060750;28;20213;-84
2023/07/21 14:27:58;;;;;;;3.13;1.73;;;;;;;;;;5071281;28;20236;-84
2023/07/21 14:30:25;;;;;;;2.33;1.83;;;;;;;;;;5074805;28;20230;-84
2023/07/21 14:32:53;;;;;;;5.28;1.77;;;;;;;;;;5065461;28;20241;-84
2023/07/21 14:35:20;;;;;;;3.47;1.55;;;;;;;;;;5066795;28;20222;-83
2023/07/21 14:37:48;;;;;;;2.38;1.80;;;;;;;;;;5073269;28;20237;-84
2023/07/21 14:40:17;;;;;;;2.40;2.13;;;;;;;;;;5057381;28;20236;-83
2023/07/21 14:42:44;;;;;;;2.05;1.70;;;;;;;;;;5066396;28;20246;-84
2023/07/21 14:45:12;;;;;;;6.10;1.95;;;;;;;;;;5064616;28;20287;-83
2023/07/21 14:47:40;;;;;;;2.15;1.60;;;;;;;;;;5067004;28;20269;-83
2023/07/21 14:50:08;;;;;;;2.10;1.58;;;;;;;;;;5055951;28;20222;-84
2023/07/21 14:52:35;;;;;;;2.75;2.00;;;;;;;;;;5067511;28;20230;-84
2023/07/21 14:55:06;;;;;;;2.17;1.52;;;;;;;;;;5054534;28;20225;-84